Aviation Digital Data Service (ADDS)

Output produced by METARs form (1304 UTC 21 April 2014)
found at http://aviationweather.gov/adds/metars/
 
KBHB 211120Z 2112/2212 22007KT P6SM SCT110 
     FM211400 21011KT P6SM FEW250 
     FM220300 22007KT P6SM SCT250 AMD LTD TO CLD VIS AND WIND